Time;durP1;ratioP1;P1;durP2;ratioP2;P2;SDS_P1;SDS_P2;PMS_P1;PMS_P2;Temp;Humidity;BMP_temperature;BMP_pressure;BME280_temperature;BME280_humidity;BME280_pressure;Samples;Min_cycle;Max_cycle;Signal;HPM_P1;HPM_P2
2021/09/29 00:00:55;;;;;;;1999.90;999.90;;;12.30;99.90;;;;;;5095168;28;20028;-81
2021/09/29 00:03:21;;;;;;;1999.90;999.90;;;12.40;99.90;;;;;;5095627;28;20030;-84
2021/09/29 00:05:46;;;;;;;1999.90;999.90;;;12.40;99.90;;;;;;5095603;28;20032;-83
2021/09/29 00:08:12;;;;;;;1999.90;999.90;;;12.40;99.90;;;;;;5096584;28;20102;-84
2021/09/29 00:10:40;;;;;;;1999.90;999.90;;;12.30;99.90;;;;;;5095476;28;20031;-83
2021/09/29 00:13:07;;;;;;;1999.90;999.90;;;12.30;99.90;;;;;;5096350;28;20120;-82
2021/09/29 00:15:33;;;;;;;1999.90;999.90;;;12.30;99.90;;;;;;5095516;28;20028;-82
2021/09/29 00:17:59;;;;;;;1999.90;999.90;;;12.30;99.90;;;;;;5095236;28;20031;-83
2021/09/29 00:20:24;;;;;;;1999.90;999.90;;;12.40;99.90;;;;;;5096862;28;20035;-81
2021/09/29 00:22:50;;;;;;;1999.90;999.90;;;12.30;99.90;;;;;;5095125;28;20044;-85
2021/09/29 00:25:16;;;;;;;1999.90;999.90;;;12.30;99.90;;;;;;5096332;28;20106;-81
2021/09/29 00:27:43;;;;;;;1999.90;999.90;;;12.20;99.90;;;;;;5096493;28;20454;-82
2021/09/29 00:30:10;;;;;;;1999.90;999.90;;;12.20;99.90;;;;;;5094788;28;20037;-81
2021/09/29 00:32:43;;;;;;;1999.90;999.90;;;12.20;99.90;;;;;;5095029;28;20020;-81
2021/09/29 00:35:11;;;;;;;1999.90;999.90;;;12.20;99.90;;;;;;5094912;28;20089;-80
2021/09/29 00:37:37;;;;;;;1999.90;999.90;;;12.10;99.90;;;;;;5095330;28;20020;-82
2021/09/29 00:40:04;;;;;;;1999.90;999.90;;;12.20;99.90;;;;;;5094901;28;20375;-82
2021/09/29 00:42:30;;;;;;;1999.90;999.90;;;12.10;99.90;;;;;;5094971;28;20028;-82
2021/09/29 00:44:56;;;;;;;1999.90;999.90;;;12.20;99.90;;;;;;5094694;28;20093;-81
2021/09/29 00:47:21;;;;;;;1999.90;999.90;;;12.20;99.90;;;;;;5094491;28;20028;-82
2021/09/29 00:49:47;;;;;;;1999.90;999.90;;;12.20;99.90;;;;;;5095006;28;20025;-81
2021/09/29 00:52:13;;;;;;;1999.90;999.90;;;12.20;99.90;;;;;;5094665;28;20031;-83
2021/09/29 00:54:40;;;;;;;1999.90;999.90;;;12.20;99.90;;;;;;5094339;28;20082;-82
2021/09/29 00:57:06;;;;;;;1999.90;999.90;;;12.10;99.90;;;;;;5094681;28;20070;-81
2021/09/29 00:59:32;;;;;;;1999.90;999.90;;;12.10;99.90;;;;;;5095021;28;20035;-82
2021/09/29 01:01:57;;;;;;;1999.90;999.90;;;12.10;99.90;;;;;;5094034;28;20024;-82
2021/09/29 01:04:26;;;;;;;1999.90;999.90;;;12.10;99.90;;;;;;5094561;28;20031;-84
2021/09/29 01:07:21;;;;;;;1999.90;999.90;;;12.10;99.90;;;;;;5094294;28;20020;-82
2021/09/29 01:10:16;;;;;;;1999.90;999.90;;;12.10;99.90;;;;;;5095444;28;20383;-83
2021/09/29 01:12:54;;;;;;;1999.90;999.90;;;12.10;99.90;;;;;;5094233;28;20483;-83
2021/09/29 01:15:33;;;;;;;1999.90;999.90;;;12.10;99.90;;;;;;5095409;28;20036;-82
2021/09/29 01:18:06;;;;;;;1999.90;999.90;;;12.10;99.90;;;;;;5094515;28;20418;-81
2021/09/29 01:20:35;;;;;;;1999.90;999.90;;;12.10;99.90;;;;;;5094304;28;20024;-83
2021/09/29 01:23:23;;;;;;;1999.90;999.90;;;12.10;99.90;;;;;;5093755;28;20483;-84
2021/09/29 01:26:04;;;;;;;1999.90;999.90;;;12.00;99.90;;;;;;5095346;28;20024;-80
2021/09/29 01:28:34;;;;;;;1999.90;999.90;;;12.00;99.90;;;;;;5094093;28;20134;-83
2021/09/29 01:31:01;;;;;;;1999.90;999.90;;;12.00;99.90;;;;;;5095094;28;20368;-86
2021/09/29 01:33:30;;;;;;;1999.90;999.90;;;12.00;99.90;;;;;;5093977;28;20028;-85
2021/09/29 01:35:56;;;;;;;1999.90;999.90;;;11.90;99.90;;;;;;5093649;28;20047;-83
2021/09/29 01:38:23;;;;;;;1999.90;999.90;;;11.90;99.90;;;;;;5093797;28;20024;-83
2021/09/29 01:40:48;;;;;;;1999.90;999.90;;;11.90;99.90;;;;;;5093546;28;20031;-82
2021/09/29 01:43:14;;;;;;;1999.90;999.90;;;11.90;99.90;;;;;;5093561;28;20024;-81
2021/09/29 01:45:43;;;;;;;1999.90;999.90;;;11.80;99.90;;;;;;5094296;28;20426;-84
2021/09/29 01:48:09;;;;;;;1999.90;999.90;;;11.80;99.90;;;;;;5093597;28;20024;-84
2021/09/29 01:50:36;;;;;;;1999.90;999.90;;;11.90;99.90;;;;;;5093123;28;20491;-82
2021/09/29 01:53:02;;;;;;;1999.90;999.90;;;11.80;99.90;;;;;;5093347;28;20505;-82
2021/09/29 01:55:29;;;;;;;1999.90;999.90;;;11.80;99.90;;;;;;5093481;28;20032;-81
2021/09/29 01:57:56;;;;;;;1999.90;999.90;;;11.80;99.90;;;;;;5093331;28;20078;-82
2021/09/29 02:00:25;;;;;;;1999.90;999.90;;;11.80;99.90;;;;;;5093435;28;20024;-81
2021/09/29 02:02:56;;;;;;;1999.90;999.90;;;11.80;99.90;;;;;;5092927;28;20020;-82
2021/09/29 02:05:30;;;;;;;1999.90;999.90;;;11.80;99.90;;;;;;5093406;28;20119;-84
2021/09/29 02:07:57;;;;;;;1999.90;999.90;;;11.80;99.90;;;;;;5093188;28;20429;-81
2021/09/29 02:10:23;;;;;;;1999.90;999.90;;;11.80;99.90;;;;;;5093421;28;20290;-83
2021/09/29 02:12:49;;;;;;;1999.90;999.90;;;11.70;99.90;;;;;;5092668;28;20028;-83
2021/09/29 02:15:14;;;;;;;1999.90;999.90;;;11.80;99.90;;;;;;5093205;28;20121;-81
2021/09/29 02:17:40;;;;;;;1999.90;999.90;;;11.80;99.90;;;;;;5093033;28;20050;-82
2021/09/29 02:20:06;;;;;;;1999.90;999.90;;;11.80;99.90;;;;;;5093226;28;20027;-83
2021/09/29 02:22:32;;;;;;;1999.90;999.90;;;11.80;99.90;;;;;;5092988;28;20048;-83
2021/09/29 02:24:58;;;;;;;1999.90;999.90;;;11.70;99.90;;;;;;5092799;28;20479;-82
2021/09/29 02:27:24;;;;;;;1999.90;999.90;;;11.70;99.90;;;;;;5093077;28;20028;-82
2021/09/29 02:29:49;;;;;;;1999.90;999.90;;;11.60;99.90;;;;;;5092943;28;20024;-82
2021/09/29 02:32:15;;;;;;;1999.90;999.90;;;11.70;99.90;;;;;;5092627;28;20126;-83
2021/09/29 02:34:41;;;;;;;1999.90;999.90;;;11.60;99.90;;;;;;5092831;28;20036;-82
2021/09/29 02:37:07;;;;;;;1999.90;999.90;;;11.60;99.90;;;;;;5092705;28;20123;-82
2021/09/29 02:39:33;;;;;;;1999.90;999.90;;;11.60;99.90;;;;;;5093298;28;20641;-82
2021/09/29 02:41:59;;;;;;;1999.90;999.90;;;11.60;99.90;;;;;;5092948;28;20119;-83
2021/09/29 02:44:25;;;;;;;1999.90;999.90;;;11.60;99.90;;;;;;5092484;28;20737;-82
2021/09/29 02:46:51;;;;;;;1999.90;999.90;;;11.50;99.90;;;;;;5092595;28;20023;-84
2021/09/29 02:49:16;;;;;;;1999.90;999.90;;;11.50;99.90;;;;;;5093534;28;20031;-86
2021/09/29 02:51:42;;;;;;;1999.90;999.90;;;11.50;99.90;;;;;;5093606;28;20024;-81
2021/09/29 02:54:08;;;;;;;1999.90;999.90;;;11.50;99.90;;;;;;5092464;28;20059;-82
2021/09/29 02:56:34;;;;;;;1999.90;999.90;;;11.50;99.90;;;;;;5092296;28;20081;-82
2021/09/29 02:59:00;;;;;;;1999.90;999.90;;;11.60;99.90;;;;;;5092299;28;20063;-81
2021/09/29 03:01:25;;;;;;;1999.90;999.90;;;11.50;99.90;;;;;;5092494;28;20031;-83
2021/09/29 03:03:51;;;;;;;1999.90;999.90;;;11.50;99.90;;;;;;5092129;28;20035;-82
2021/09/29 03:06:17;;;;;;;1999.90;999.90;;;11.50;99.90;;;;;;5092413;28;20024;-83
2021/09/29 03:08:42;;;;;;;1999.90;999.90;;;11.60;99.90;;;;;;5093467;28;20020;-81
2021/09/29 03:11:09;;;;;;;1999.90;999.90;;;11.50;99.90;;;;;;5093624;28;20027;-82
2021/09/29 03:13:35;;;;;;;1999.90;999.90;;;11.50;99.90;;;;;;5092172;28;20483;-80
2021/09/29 03:16:01;;;;;;;1999.90;999.90;;;11.50;99.90;;;;;;5092420;28;20043;-80
2021/09/29 03:18:26;;;;;;;1999.90;999.90;;;11.50;99.90;;;;;;5092219;28;20805;-82
2021/09/29 03:20:52;;;;;;;1999.90;999.90;;;11.50;99.90;;;;;;5092083;28;20036;-80
2021/09/29 03:23:18;;;;;;;1999.90;999.90;;;11.40;99.90;;;;;;5092696;28;20044;-81
2021/09/29 03:25:45;;;;;;;1999.90;999.90;;;11.40;99.90;;;;;;5096849;28;20020;-82
2021/09/29 03:28:11;;;;;;;1999.90;999.90;;;11.50;99.90;;;;;;5096398;28;20055;-82
2021/09/29 03:30:37;;;;;;;1999.90;999.90;;;11.50;99.90;;;;;;5096076;28;20486;-83
2021/09/29 03:33:06;;;;;;;1999.90;999.90;;;11.50;99.90;;;;;;5096133;28;20478;-82
2021/09/29 03:35:35;;;;;;;1999.90;999.90;;;11.50;99.90;;;;;;5096154;28;20438;-82
2021/09/29 03:38:02;;;;;;;1999.90;999.90;;;11.50;99.90;;;;;;5096244;28;20111;-81
2021/09/29 03:40:27;;;;;;;1999.90;999.90;;;11.40;99.90;;;;;;5096171;28;20059;-84
2021/09/29 03:42:53;;;;;;;1999.90;999.90;;;11.40;99.90;;;;;;5096124;28;20462;-81
2021/09/29 03:45:19;;;;;;;1999.90;999.90;;;11.40;99.90;;;;;;5095881;28;20024;-84
2021/09/29 03:47:45;;;;;;;1999.90;999.90;;;11.40;99.90;;;;;;5095587;28;20031;-83
2021/09/29 03:50:12;;;;;;;1999.90;999.90;;;11.30;99.90;;;;;;5095957;28;20028;-82
2021/09/29 03:52:39;;;;;;;1999.90;999.90;;;11.30;99.90;;;;;;5097219;28;20048;-83
2021/09/29 03:55:05;;;;;;;1999.90;999.90;;;11.30;99.90;;;;;;5095730;28;20032;-82
2021/09/29 03:57:31;;;;;;;1999.90;999.90;;;11.30;99.90;;;;;;5095741;28;20020;-84
2021/09/29 03:59:57;;;;;;;1999.90;999.90;;;11.30;99.90;;;;;;5095888;28;20024;-83
2021/09/29 04:02:22;;;;;;;1999.90;999.90;;;11.20;99.90;;;;;;5096764;28;20021;-82
2021/09/29 04:04:48;;;;;;;1999.90;999.90;;;11.20;99.90;;;;;;5095262;28;20028;-82
2021/09/29 04:07:14;;;;;;;1999.90;999.90;;;11.20;99.90;;;;;;5095649;28;20028;-81
2021/09/29 04:09:39;;;;;;;1999.90;999.90;;;11.30;99.90;;;;;;5095635;28;20032;-82
2021/09/29 04:12:05;;;;;;;1999.90;999.90;;;11.30;99.90;;;;;;5095552;28;20475;-82
2021/09/29 04:14:32;;;;;;;1999.90;999.90;;;11.30;99.90;;;;;;5095444;28;20034;-82
2021/09/29 04:16:58;;;;;;;1999.90;999.90;;;11.30;99.90;;;;;;5095585;28;20024;-83
2021/09/29 04:19:24;;;;;;;1999.90;999.90;;;11.30;99.90;;;;;;5095604;28;20030;-81
2021/09/29 04:21:49;;;;;;;1999.90;999.90;;;11.30;99.90;;;;;;5095153;28;20536;-82
2021/09/29 04:24:15;;;;;;;1999.90;999.90;;;11.30;99.90;;;;;;5095228;28;20087;-82
2021/09/29 04:26:41;;;;;;;1999.90;999.90;;;11.30;99.90;;;;;;5095021;28;20047;-84
2021/09/29 04:29:08;;;;;;;1999.90;999.90;;;11.30;99.90;;;;;;5095310;28;20054;-82
2021/09/29 04:31:34;;;;;;;1999.90;999.90;;;11.30;99.90;;;;;;5095385;28;20356;-82
2021/09/29 04:34:00;;;;;;;1999.90;999.90;;;11.30;99.90;;;;;;5094653;28;20074;-81
2021/09/29 04:36:25;;;;;;;1999.90;999.90;;;11.30;99.90;;;;;;5096186;28;20478;-84
2021/09/29 04:38:51;;;;;;;1999.90;999.90;;;11.20;99.90;;;;;;5097360;28;20059;-84
2021/09/29 04:41:17;;;;;;;1999.90;999.90;;;11.30;99.90;;;;;;5096026;28;20047;-85
2021/09/29 04:43:43;;;;;;;1999.90;999.90;;;11.20;99.90;;;;;;5096286;28;20046;-85
2021/09/29 04:46:08;;;;;;;1999.90;999.90;;;11.60;99.90;;;;;;5100262;28;20488;-82
2021/09/29 04:48:34;;;;;;;1999.90;999.90;;;11.50;99.90;;;;;;5095495;28;20017;-85
2021/09/29 04:51:00;;;;;;;1999.90;999.90;;;11.40;99.90;;;;;;5098939;28;20028;-82
2021/09/29 04:53:26;;;;;;;1999.90;999.90;;;11.40;99.90;;;;;;5094406;28;20073;-85
2021/09/29 04:55:52;;;;;;;1999.90;999.90;;;11.40;99.90;;;;;;5095069;28;20039;-81
2021/09/29 04:58:17;;;;;;;1999.90;999.90;;;11.40;99.90;;;;;;5095749;28;20023;-82
2021/09/29 05:00:43;;;;;;;1999.90;999.90;;;11.30;99.90;;;;;;5094649;28;20123;-86
2021/09/29 05:03:10;;;;;;;1999.90;999.90;;;11.40;99.90;;;;;;5094701;28;20201;-84
2021/09/29 05:05:36;;;;;;;1999.90;999.90;;;11.40;99.90;;;;;;5094890;28;20542;-82
2021/09/29 05:08:05;;;;;;;1999.90;999.90;;;11.40;99.90;;;;;;5094763;28;20107;-83
2021/09/29 05:10:45;;;;;;;1999.90;999.90;;;11.40;99.90;;;;;;5094728;28;20028;-85
2021/09/29 05:13:17;;;;;;;1999.90;999.90;;;11.40;99.90;;;;;;5095900;28;20410;-85
2021/09/29 05:15:43;;;;;;;1999.90;999.90;;;11.40;99.90;;;;;;5094788;28;20032;-83
2021/09/29 05:18:09;;;;;;;1999.90;999.90;;;11.40;99.90;;;;;;5095991;28;20085;-83
2021/09/29 05:20:35;;;;;;;1999.90;999.90;;;11.40;99.90;;;;;;5094964;28;20023;-84
2021/09/29 05:23:00;;;;;;;1999.90;999.90;;;11.40;99.90;;;;;;5093928;28;20503;-83
2021/09/29 05:25:26;;;;;;;1999.90;999.90;;;11.50;99.90;;;;;;5094747;28;20028;-84
2021/09/29 05:27:52;;;;;;;1999.90;999.90;;;11.50;99.90;;;;;;5094742;28;20024;-84
2021/09/29 05:30:18;;;;;;;1999.90;999.90;;;11.50;99.90;;;;;;5094621;28;20051;-84
2021/09/29 05:32:43;;;;;;;1999.90;999.90;;;11.50;99.90;;;;;;5094514;28;20417;-83
2021/09/29 05:35:09;;;;;;;1999.90;999.90;;;11.60;99.90;;;;;;5095465;28;20085;-83
2021/09/29 05:37:35;;;;;;;1999.90;999.90;;;11.60;99.90;;;;;;5094582;28;20028;-83
2021/09/29 05:40:01;;;;;;;1999.90;999.90;;;11.60;99.90;;;;;;5094427;28;20464;-83
2021/09/29 05:42:28;;;;;;;1999.90;999.90;;;11.70;99.90;;;;;;5095367;28;20020;-84
2021/09/29 05:44:54;;;;;;;1999.90;999.90;;;11.80;99.90;;;;;;5094356;28;20512;-82
2021/09/29 05:47:19;;;;;;;1999.90;999.90;;;11.80;99.90;;;;;;5093960;28;20032;-84
2021/09/29 05:49:45;;;;;;;1999.90;999.90;;;11.80;99.90;;;;;;5094400;28;20028;-83
2021/09/29 05:52:11;;;;;;;1999.90;999.90;;;11.90;99.90;;;;;;5094342;28;20024;-84
2021/09/29 05:54:36;;;;;;;1999.90;999.90;;;12.00;99.90;;;;;;5094130;28;20038;-84
2021/09/29 05:57:03;;;;;;;1999.90;999.90;;;12.00;99.90;;;;;;5094058;28;20084;-81
2021/09/29 05:59:28;;;;;;;1999.90;999.90;;;12.00;99.90;;;;;;5093819;28;20016;-84
2021/09/29 06:01:54;;;;;;;1999.90;999.90;;;12.10;99.90;;;;;;5093881;28;20069;-82
2021/09/29 06:04:20;;;;;;;1999.90;999.90;;;12.10;99.90;;;;;;5094077;28;20028;-83
2021/09/29 06:06:46;;;;;;;1999.90;999.90;;;12.20;99.90;;;;;;5094017;28;20021;-81
2021/09/29 06:09:11;;;;;;;1999.90;999.90;;;12.20;99.90;;;;;;5095406;28;20020;-85
2021/09/29 06:11:37;;;;;;;1999.90;999.90;;;12.20;99.90;;;;;;5094225;28;20050;-81
2021/09/29 06:14:04;;;;;;;1999.90;999.90;;;12.20;99.90;;;;;;5093521;28;20383;-83
2021/09/29 06:16:34;;;;;;;1999.90;999.90;;;13.10;99.90;;;;;;5093718;28;20032;-81
2021/09/29 06:19:00;;;;;;;1999.90;999.90;;;13.20;99.90;;;;;;5093225;28;20383;-82
2021/09/29 06:21:26;;;;;;;1999.90;999.90;;;13.00;99.90;;;;;;5092887;28;20024;-82
2021/09/29 06:23:52;;;;;;;1999.90;999.90;;;13.00;99.90;;;;;;5093820;28;20094;-86
2021/09/29 06:26:18;;;;;;;1999.90;999.90;;;13.00;99.90;;;;;;5094235;28;20115;-85
2021/09/29 06:28:43;;;;;;;1999.90;999.90;;;13.00;99.90;;;;;;5094539;28;20119;-84
2021/09/29 06:31:09;;;;;;;1999.90;999.90;;;12.90;99.90;;;;;;5093944;28;20459;-81
2021/09/29 06:33:35;;;;;;;1999.90;999.90;;;13.00;99.90;;;;;;5094129;28;20058;-86
2021/09/29 06:36:01;;;;;;;1999.90;999.90;;;13.10;99.90;;;;;;5093088;28;20028;-86
2021/09/29 06:38:27;;;;;;;1999.90;999.90;;;13.20;99.90;;;;;;5093364;28;20021;-83
2021/09/29 06:40:53;;;;;;;1999.90;999.90;;;13.20;99.90;;;;;;5093219;28;20459;-85
2021/09/29 06:43:19;;;;;;;1999.90;999.90;;;13.30;99.90;;;;;;5094013;28;20020;-80
2021/09/29 06:45:44;;;;;;;1999.90;999.90;;;13.40;99.90;;;;;;5092452;28;20031;-80
2021/09/29 06:48:10;;;;;;;1999.90;999.90;;;14.10;99.90;;;;;;5091725;28;20041;-79
2021/09/29 06:50:37;;;;;;;1999.90;999.90;;;14.70;99.90;;;;;;5092841;28;20028;-79
2021/09/29 06:53:04;;;;;;;1999.90;999.90;;;15.20;99.90;;;;;;5091905;28;20020;-80
2021/09/29 06:55:30;;;;;;;1999.90;999.90;;;15.40;99.90;;;;;;5098383;28;20044;-79
2021/09/29 06:57:56;;;;;;;1999.90;999.90;;;15.60;99.90;;;;;;5102213;28;20077;-80
2021/09/29 07:00:23;;;;;;;1999.90;999.90;;;15.90;99.90;;;;;;5099923;28;20027;-80
2021/09/29 07:02:49;;;;;;;1999.90;999.90;;;16.00;99.90;;;;;;5098538;28;20012;-79
2021/09/29 07:05:17;;;;;;;1999.90;999.90;;;16.20;99.90;;;;;;5092986;28;20479;-81
2021/09/29 07:07:43;;;;;;;1999.90;999.90;;;16.20;99.90;;;;;;5092739;28;20185;-80
2021/09/29 07:10:10;;;;;;;1999.90;999.90;;;16.30;99.90;;;;;;5092218;28;20031;-80
2021/09/29 07:12:37;;;;;;;1999.90;999.90;;;16.50;99.90;;;;;;5091758;28;20070;-80
2021/09/29 07:15:04;;;;;;;1999.90;999.90;;;16.40;99.90;;;;;;5091956;28;20036;-81
2021/09/29 07:17:30;;;;;;;1999.90;999.90;;;16.30;99.90;;;;;;5091906;28;20031;-81
2021/09/29 07:19:59;;;;;;;1999.90;999.90;;;16.30;99.90;;;;;;5093881;28;20028;-81
2021/09/29 07:22:26;;;;;;;1999.90;999.90;;;16.10;99.90;;;;;;5092276;28;20044;-84
2021/09/29 07:24:53;;;;;;;1999.90;999.90;;;16.00;99.90;;;;;;5092162;28;20028;-81
2021/09/29 07:27:19;;;;;;;1999.90;999.90;;;16.00;99.90;;;;;;5092064;28;20096;-83
2021/09/29 07:29:45;;;;;;;1999.90;999.90;;;15.90;99.90;;;;;;5092286;28;20024;-82
2021/09/29 07:32:10;;;;;;;1999.90;999.90;;;15.90;99.90;;;;;;5092748;28;20472;-84
2021/09/29 07:34:36;;;;;;;1999.90;999.90;;;15.90;99.90;;;;;;5091919;28;20093;-81
2021/09/29 07:37:02;;;;;;;1999.90;999.90;;;16.00;99.90;;;;;;5093363;28;20032;-80
2021/09/29 07:39:27;;;;;;;1999.90;999.90;;;16.10;99.90;;;;;;5091941;28;20020;-80
2021/09/29 07:41:53;;;;;;;1999.90;999.90;;;16.20;99.90;;;;;;5092985;28;20058;-80
2021/09/29 07:44:19;;;;;;;1999.90;999.90;;;16.30;99.90;;;;;;5091854;28;20017;-80
2021/09/29 07:46:47;;;;;;;1999.90;999.90;;;16.30;99.90;;;;;;5091766;28;20073;-81
2021/09/29 07:49:13;;;;;;;1999.90;999.90;;;16.40;99.90;;;;;;5091388;28;20475;-79
2021/09/29 07:51:39;;;;;;;1999.90;999.90;;;16.60;99.90;;;;;;5091927;28;20414;-78
2021/09/29 07:54:05;;;;;;;1999.90;999.90;;;16.60;99.90;;;;;;5091504;28;20027;-79
2021/09/29 07:56:31;;;;;;;1999.90;999.90;;;16.80;99.90;;;;;;5092394;28;20036;-79
2021/09/29 07:58:57;;;;;;;1999.90;999.90;;;17.00;99.90;;;;;;5092263;28;20028;-80
2021/09/29 08:01:23;;;;;;;1999.90;999.90;;;17.10;99.90;;;;;;5092548;28;20103;-79
2021/09/29 08:03:50;;;;;;;1999.90;999.90;;;17.20;99.90;;;;;;5092723;28;20020;-77
2021/09/29 08:06:16;;;;;;;1999.90;999.90;;;17.30;99.90;;;;;;5090646;28;20035;-79
2021/09/29 08:08:41;;;;;;;1999.90;999.90;;;17.30;99.90;;;;;;5092391;28;20021;-79
2021/09/29 08:11:07;;;;;;;1999.90;999.90;;;17.50;99.90;;;;;;5094989;28;20087;-79
2021/09/29 08:13:33;;;;;;;1999.90;999.90;;;17.50;99.90;;;;;;5095220;28;20057;-80
2021/09/29 08:15:59;;;;;;;1999.90;999.90;;;17.60;99.90;;;;;;5095585;28;20039;-79
2021/09/29 08:18:25;;;;;;;1999.90;999.90;;;17.70;99.90;;;;;;5094742;28;20410;-79
2021/09/29 08:20:54;;;;;;;1999.90;999.90;;;17.70;99.90;;;;;;5094378;28;20481;-79
2021/09/29 08:23:28;;;;;;;1999.90;999.90;;;17.80;99.90;;;;;;5094394;28;20073;-79
2021/09/29 08:34:12;;;;;;;1999.90;999.90;;;18.30;99.90;;;;;;5095690;28;20031;-77
2021/09/29 08:39:55;;;;;;;1999.90;999.90;;;18.70;99.90;;;;;;5095679;28;20467;-77
2021/09/29 08:44:56;;;;;;;1999.90;999.90;;;18.90;99.90;;;;;;5052706;28;20358;-79
2021/09/29 08:47:31;;;;;;;1999.90;999.90;;;19.00;99.90;;;;;;5086767;28;20028;-77
2021/09/29 08:58:07;;;;;;;1999.90;999.90;;;19.20;99.90;;;;;;5095438;28;20032;-76
2021/09/29 09:17:26;;;;;;;1999.90;999.90;;;19.50;99.90;;;;;;5096311;28;20036;-80
2021/09/29 09:19:52;;;;;;;1999.90;999.90;;;19.50;99.80;;;;;;5103792;28;20036;-81
2021/09/29 09:22:18;;;;;;;1999.90;999.90;;;19.40;99.90;;;;;;5094336;28;20055;-81
2021/09/29 09:24:52;;;;;;;1999.90;999.90;;;19.40;99.80;;;;;;5096802;28;20034;-81
2021/09/29 09:27:18;;;;;;;1999.90;999.90;;;19.60;99.90;;;;;;5096233;28;20020;-82
2021/09/29 09:29:49;;;;;;;1999.90;999.90;;;19.80;99.50;;;;;;5096247;28;20119;-79
2021/09/29 09:32:18;;;;;;;1999.90;999.90;;;19.80;98.20;;;;;;5096160;28;20087;-79
2021/09/29 09:34:44;;;;;;;1999.90;999.90;;;19.80;98.80;;;;;;5098221;28;20024;-81
2021/09/29 09:37:14;;;;;;;1999.90;999.90;;;19.80;99.50;;;;;;5099039;28;20036;-81
2021/09/29 09:39:41;;;;;;;1999.90;999.90;;;19.90;97.90;;;;;;5097714;28;20103;-80
2021/09/29 09:42:08;;;;;;;1999.90;999.90;;;20.00;99.10;;;;;;5105859;28;20512;-81
2021/09/29 09:44:41;;;;;;;1999.90;999.90;;;20.00;99.00;;;;;;5115879;28;20000;-81
2021/09/29 09:47:10;;;;;;;1999.90;999.90;;;20.10;99.00;;;;;;5115390;28;20008;-79
2021/09/29 09:49:55;;;;;;;1999.90;999.90;;;20.20;99.50;;;;;;5115797;28;20020;-80
2021/09/29 09:52:41;;;;;;;1999.90;999.90;;;20.20;99.40;;;;;;5115701;28;20028;-82
2021/09/29 09:55:14;;;;;;;1999.90;999.90;;;20.30;99.30;;;;;;5116142;28;20067;-80
2021/09/29 09:57:41;;;;;;;1999.90;999.90;;;20.30;98.50;;;;;;5116642;28;20040;-80
2021/09/29 10:00:13;;;;;;;1999.90;999.90;;;20.40;98.80;;;;;;5115233;28;20034;-79
2021/09/29 10:02:47;;;;;;;1999.90;999.90;;;20.40;98.50;;;;;;5109973;28;20058;-81
2021/09/29 10:05:20;;;;;;;1999.90;999.90;;;20.50;98.70;;;;;;5096252;28;20028;-81
2021/09/29 10:07:47;;;;;;;1999.90;999.90;;;20.60;98.50;;;;;;5097581;28;20035;-81
2021/09/29 10:10:34;;;;;;;1999.90;999.90;;;20.90;96.90;;;;;;5098049;28;20039;-81
2021/09/29 10:27:22;;;;;;;1999.90;999.90;;;20.90;97.00;;;;;;5078871;28;20036;-80
2021/09/29 10:29:56;;;;;;;1999.90;999.90;;;20.90;97.00;;;;;;5093881;28;20085;-80
2021/09/29 10:43:23;;;;;;;;;;;21.20;95.10;;;;;;5057903;28;20029;-81
2021/09/29 10:48:46;;;;;;;1999.90;999.90;;;21.10;94.80;;;;;;5094443;28;20079;-78
2021/09/29 11:30:42;;;;;;;1999.90;999.90;;;21.40;93.10;;;;;;5094212;28;20048;-81
2021/09/29 11:33:17;;;;;;;1999.90;999.90;;;21.40;93.40;;;;;;5093244;28;20039;-79
2021/09/29 12:08:36;;;;;;;1999.90;999.90;;;21.20;96.20;;;;;;5097840;28;20565;-81
2021/09/29 12:11:10;;;;;;;1999.90;999.90;;;21.20;96.40;;;;;;5096412;28;20035;-80
2021/09/29 12:13:45;;;;;;;1999.90;999.90;;;21.10;96.70;;;;;;5096082;28;20043;-81
2021/09/29 12:16:12;;;;;;;1999.90;999.90;;;20.80;96.10;;;;;;5096235;28;20032;-80
2021/09/29 12:18:38;;;;;;;1999.90;999.90;;;20.80;97.10;;;;;;5097156;28;20254;-81
2021/09/29 12:21:04;;;;;;;1999.90;999.90;;;20.80;97.40;;;;;;5096051;28;20024;-80
2021/09/29 12:23:30;;;;;;;1999.90;999.90;;;20.80;97.50;;;;;;5095769;28;20071;-78
2021/09/29 12:26:24;;;;;;;1999.90;999.90;;;20.90;97.40;;;;;;5095810;28;20024;-80
2021/09/29 12:29:01;;;;;;;1999.90;999.90;;;21.00;96.70;;;;;;5096048;28;20081;-79
2021/09/29 12:34:28;;;;;;;1999.90;999.90;;;21.30;95.80;;;;;;5096466;28;20146;-76
2021/09/29 12:36:54;;;;;;;1999.90;999.90;;;21.40;95.50;;;;;;5095279;28;20047;-81
2021/09/29 12:39:28;;;;;;;1999.90;999.90;;;21.30;95.40;;;;;;5096447;28;20024;-80
2021/09/29 12:41:56;;;;;;;1999.90;999.90;;;21.20;95.70;;;;;;5094910;28;20119;-78
2021/09/29 12:44:22;;;;;;;1999.90;999.90;;;21.20;95.90;;;;;;5095472;28;20411;-78
2021/09/29 12:47:04;;;;;;;1999.90;999.90;;;21.10;95.50;;;;;;5096596;28;20020;-78
2021/09/29 12:49:30;;;;;;;1999.90;999.90;;;21.00;96.00;;;;;;5094787;28;20032;-78
2021/09/29 12:52:10;;;;;;;1999.90;999.90;;;20.90;96.00;;;;;;5095356;28;20028;-79
2021/09/29 12:54:47;;;;;;;1999.90;999.90;;;20.90;96.90;;;;;;5095086;28;20391;-79
2021/09/29 12:57:12;;;;;;;1999.90;999.90;;;20.90;96.80;;;;;;5094900;28;20386;-78
2021/09/29 12:59:38;;;;;;;1999.90;999.90;;;21.00;96.40;;;;;;5096537;28;20104;-78
2021/09/29 13:02:04;;;;;;;1999.90;999.90;;;20.90;96.40;;;;;;5094303;28;20526;-77
2021/09/29 13:04:29;;;;;;;1999.90;999.90;;;20.80;96.80;;;;;;5094205;28;20035;-84
2021/09/29 13:06:55;;;;;;;1999.90;999.90;;;20.80;97.30;;;;;;5094509;28;20078;-80
2021/09/29 13:09:22;;;;;;;1999.90;999.90;;;20.90;98.20;;;;;;5095340;28;20021;-79
2021/09/29 13:11:48;;;;;;;1999.90;999.90;;;20.90;96.60;;;;;;5095615;28;20640;-79
2021/09/29 13:14:13;;;;;;;1999.90;999.90;;;20.90;96.70;;;;;;5094184;28;20032;-80
2021/09/29 13:16:39;;;;;;;1999.90;999.90;;;21.00;96.70;;;;;;5094271;28;20043;-81
2021/09/29 13:19:16;;;;;;;1999.90;999.90;;;20.90;96.70;;;;;;5094124;28;20107;-81
2021/09/29 13:21:53;;;;;;;1999.90;999.90;;;20.90;97.20;;;;;;5093811;28;20028;-80
2021/09/29 13:37:57;;;;;;;1999.90;999.90;;;20.20;99.90;;;;;;5095370;28;20081;-82
2021/09/29 13:40:23;;;;;;;1999.90;999.90;;;20.10;99.90;;;;;;5095083;28;20028;-80
2021/09/29 13:42:48;;;;;;;1999.90;999.90;;;20.00;99.90;;;;;;5093788;28;20020;-80
2021/09/29 13:45:14;;;;;;;1999.90;999.90;;;19.90;99.90;;;;;;5093736;28;20024;-79
2021/09/29 13:47:40;;;;;;;1999.90;999.90;;;19.90;99.90;;;;;;5093160;28;20115;-81
2021/09/29 13:50:06;;;;;;;1999.90;999.90;;;19.80;99.90;;;;;;5093292;28;20024;-79
2021/09/29 13:52:32;;;;;;;1999.90;999.90;;;19.80;99.90;;;;;;5093212;28;20028;-81
2021/09/29 13:55:02;;;;;;;1999.90;999.90;;;19.80;99.90;;;;;;5093398;28;20017;-83
2021/09/29 13:57:34;;;;;;;1999.90;999.90;;;19.70;99.90;;;;;;5093323;28;20127;-81
2021/09/29 14:30:26;;;;;;;1999.90;999.90;;;18.10;99.90;;;;;;5094581;28;20031;-80
2021/09/29 14:35:23;;;;;;;1999.90;999.90;;;17.90;99.90;;;;;;5094413;28;20558;-80
2021/09/29 14:37:49;;;;;;;1999.90;999.90;;;17.90;99.90;;;;;;5093916;28;20106;-80
2021/09/29 14:40:18;;;;;;;1999.90;999.90;;;17.80;99.90;;;;;;5092688;28;20028;-78
2021/09/29 14:42:43;;;;;;;1999.90;999.90;;;17.70;99.90;;;;;;5092669;28;20483;-79
2021/09/29 14:45:10;;;;;;;1999.90;999.90;;;17.60;99.90;;;;;;5093584;28;20024;-79
2021/09/29 14:47:35;;;;;;;1999.90;999.90;;;17.50;99.90;;;;;;5092586;28;20035;-79
2021/09/29 14:50:02;;;;;;;1999.90;999.90;;;17.40;99.90;;;;;;5092922;28;20024;-79
2021/09/29 14:52:28;;;;;;;1999.90;999.90;;;17.40;99.90;;;;;;5092594;28;20111;-78
2021/09/29 14:54:54;;;;;;;1999.90;999.90;;;17.30;99.90;;;;;;5093114;28;20041;-81
2021/09/29 14:57:20;;;;;;;1999.90;999.90;;;17.30;99.90;;;;;;5093372;28;20107;-79
2021/09/29 14:59:46;;;;;;;1999.90;999.90;;;17.20;99.90;;;;;;5092468;28;20375;-79
2021/09/29 15:02:14;;;;;;;1999.90;999.90;;;17.20;99.90;;;;;;5092885;28;20111;-80
2021/09/29 15:04:40;;;;;;;1999.90;999.90;;;17.20;99.90;;;;;;5092702;28;20077;-79
2021/09/29 15:07:06;;;;;;;1999.90;999.90;;;17.10;99.90;;;;;;5092665;28;20421;-78
2021/09/29 15:09:33;;;;;;;1999.90;999.90;;;17.20;99.90;;;;;;5092769;28;20031;-79